sensor_id;sensor_type;location;lat;lon;timestamp;P1;durP1;ratioP1;P2;durP2;ratioP2
11709;SDS011;5911;51.036;6.972;2023-07-24T00:00:36;2.97;;;2.72;;
11709;SDS011;5911;51.036;6.972;2023-07-24T00:03:06;3.58;;;2.85;;
11709;SDS011;5911;51.036;6.972;2023-07-24T00:05:34;3.65;;;2.70;;
11709;SDS011;5911;51.036;6.972;2023-07-24T00:08:02;4.38;;;2.67;;
11709;SDS011;5911;51.036;6.972;2023-07-24T00:10:30;5.38;;;3.13;;
11709;SDS011;5911;51.036;6.972;2023-07-24T00:12:57;5.55;;;3.67;;
11709;SDS011;5911;51.036;6.972;2023-07-24T00:15:26;5.82;;;3.67;;
11709;SDS011;5911;51.036;6.972;2023-07-24T00:17:54;5.22;;;3.67;;
11709;SDS011;5911;51.036;6.972;2023-07-24T00:20:24;5.03;;;3.78;;
11709;SDS011;5911;51.036;6.972;2023-07-24T00:22:52;4.53;;;3.40;;
11709;SDS011;5911;51.036;6.972;2023-07-24T00:25:20;4.28;;;3.47;;
11709;SDS011;5911;51.036;6.972;2023-07-24T00:27:48;3.55;;;3.13;;
11709;SDS011;5911;51.036;6.972;2023-07-24T00:30:16;3.58;;;3.20;;
11709;SDS011;5911;51.036;6.972;2023-07-24T00:32:45;3.75;;;3.33;;
11709;SDS011;5911;51.036;6.972;2023-07-24T00:35:13;3.83;;;3.45;;
11709;SDS011;5911;51.036;6.972;2023-07-24T00:37:41;4.32;;;3.40;;
11709;SDS011;5911;51.036;6.972;2023-07-24T00:40:09;5.50;;;3.70;;
11709;SDS011;5911;51.036;6.972;2023-07-24T00:42:37;4.05;;;3.40;;
11709;SDS011;5911;51.036;6.972;2023-07-24T00:45:06;4.35;;;3.55;;
11709;SDS011;5911;51.036;6.972;2023-07-24T00:47:35;5.57;;;4.10;;
11709;SDS011;5911;51.036;6.972;2023-07-24T00:50:06;4.82;;;3.70;;
11709;SDS011;5911;51.036;6.972;2023-07-24T00:52:34;6.03;;;4.10;;
11709;SDS011;5911;51.036;6.972;2023-07-24T00:55:03;5.05;;;3.90;;
11709;SDS011;5911;51.036;6.972;2023-07-24T00:57:31;6.78;;;4.30;;
11709;SDS011;5911;51.036;6.972;2023-07-24T01:00:00;6.38;;;3.63;;
11709;SDS011;5911;51.036;6.972;2023-07-24T01:02:29;5.10;;;3.92;;
11709;SDS011;5911;51.036;6.972;2023-07-24T01:04:57;6.70;;;4.20;;
11709;SDS011;5911;51.036;6.972;2023-07-24T01:07:27;7.38;;;3.55;;
11709;SDS011;5911;51.036;6.972;2023-07-24T01:09:54;5.38;;;3.60;;
11709;SDS011;5911;51.036;6.972;2023-07-24T01:12:23;4.72;;;3.25;;
11709;SDS011;5911;51.036;6.972;2023-07-24T01:15:02;4.50;;;3.22;;
11709;SDS011;5911;51.036;6.972;2023-07-24T01:17:34;3.33;;;3.03;;
11709;SDS011;5911;51.036;6.972;2023-07-24T01:20:09;5.10;;;3.38;;
11709;SDS011;5911;51.036;6.972;2023-07-24T01:22:45;3.63;;;3.33;;
11709;SDS011;5911;51.036;6.972;2023-07-24T01:25:27;4.75;;;3.63;;
11709;SDS011;5911;51.036;6.972;2023-07-24T01:28:00;4.18;;;3.75;;
11709;SDS011;5911;51.036;6.972;2023-07-24T01:30:28;5.10;;;3.90;;
11709;SDS011;5911;51.036;6.972;2023-07-24T01:32:55;5.55;;;3.72;;
11709;SDS011;5911;51.036;6.972;2023-07-24T01:35:23;4.38;;;3.50;;
11709;SDS011;5911;51.036;6.972;2023-07-24T01:37:53;5.18;;;3.80;;
11709;SDS011;5911;51.036;6.972;2023-07-24T01:40:23;4.75;;;3.88;;
11709;SDS011;5911;51.036;6.972;2023-07-24T01:42:51;4.90;;;3.78;;
11709;SDS011;5911;51.036;6.972;2023-07-24T01:45:21;4.45;;;3.95;;
11709;SDS011;5911;51.036;6.972;2023-07-24T01:47:48;6.65;;;3.70;;
11709;SDS011;5911;51.036;6.972;2023-07-24T01:50:16;8.82;;;3.95;;
11709;SDS011;5911;51.036;6.972;2023-07-24T01:52:44;6.15;;;3.85;;
11709;SDS011;5911;51.036;6.972;2023-07-24T01:55:12;5.97;;;4.00;;
11709;SDS011;5911;51.036;6.972;2023-07-24T01:57:40;11.95;;;4.35;;
11709;SDS011;5911;51.036;6.972;2023-07-24T02:00:08;6.15;;;4.10;;
11709;SDS011;5911;51.036;6.972;2023-07-24T02:02:38;6.28;;;3.85;;
11709;SDS011;5911;51.036;6.972;2023-07-24T02:05:06;4.80;;;3.78;;
11709;SDS011;5911;51.036;6.972;2023-07-24T02:07:35;7.22;;;4.75;;
11709;SDS011;5911;51.036;6.972;2023-07-24T02:10:03;6.22;;;4.32;;
11709;SDS011;5911;51.036;6.972;2023-07-24T02:12:31;6.90;;;4.85;;
11709;SDS011;5911;51.036;6.972;2023-07-24T02:14:59;7.03;;;4.03;;
11709;SDS011;5911;51.036;6.972;2023-07-24T02:17:27;4.63;;;3.80;;
11709;SDS011;5911;51.036;6.972;2023-07-24T02:19:56;4.82;;;4.13;;
11709;SDS011;5911;51.036;6.972;2023-07-24T02:22:24;5.60;;;3.78;;
11709;SDS011;5911;51.036;6.972;2023-07-24T02:24:52;5.22;;;3.78;;
11709;SDS011;5911;51.036;6.972;2023-07-24T02:27:26;3.92;;;3.53;;
11709;SDS011;5911;51.036;6.972;2023-07-24T02:29:56;4.43;;;3.50;;
11709;SDS011;5911;51.036;6.972;2023-07-24T02:32:25;5.63;;;3.40;;
11709;SDS011;5911;51.036;6.972;2023-07-24T02:34:53;6.20;;;3.58;;
11709;SDS011;5911;51.036;6.972;2023-07-24T02:37:22;5.28;;;3.90;;
11709;SDS011;5911;51.036;6.972;2023-07-24T02:39:51;7.38;;;3.90;;
11709;SDS011;5911;51.036;6.972;2023-07-24T02:42:19;4.45;;;3.60;;
11709;SDS011;5911;51.036;6.972;2023-07-24T02:44:47;5.53;;;3.67;;
11709;SDS011;5911;51.036;6.972;2023-07-24T02:47:14;5.90;;;3.80;;
11709;SDS011;5911;51.036;6.972;2023-07-24T02:49:43;5.63;;;3.67;;
11709;SDS011;5911;51.036;6.972;2023-07-24T02:52:14;5.00;;;3.30;;
11709;SDS011;5911;51.036;6.972;2023-07-24T02:54:43;5.75;;;3.75;;
11709;SDS011;5911;51.036;6.972;2023-07-24T02:57:11;4.22;;;3.35;;
11709;SDS011;5911;51.036;6.972;2023-07-24T02:59:39;3.85;;;3.45;;
11709;SDS011;5911;51.036;6.972;2023-07-24T03:02:07;5.90;;;3.50;;
11709;SDS011;5911;51.036;6.972;2023-07-24T03:04:35;4.88;;;4.05;;
11709;SDS011;5911;51.036;6.972;2023-07-24T03:07:02;5.70;;;4.07;;
11709;SDS011;5911;51.036;6.972;2023-07-24T03:09:31;6.03;;;3.92;;
11709;SDS011;5911;51.036;6.972;2023-07-24T03:12:00;6.47;;;3.47;;
11709;SDS011;5911;51.036;6.972;2023-07-24T03:14:28;4.25;;;3.63;;
11709;SDS011;5911;51.036;6.972;2023-07-24T03:16:56;5.38;;;4.00;;
11709;SDS011;5911;51.036;6.972;2023-07-24T03:19:26;3.78;;;3.47;;
11709;SDS011;5911;51.036;6.972;2023-07-24T03:21:54;7.43;;;3.65;;
11709;SDS011;5911;51.036;6.972;2023-07-24T03:24:22;4.35;;;3.38;;
11709;SDS011;5911;51.036;6.972;2023-07-24T03:26:50;6.30;;;3.70;;
11709;SDS011;5911;51.036;6.972;2023-07-24T03:29:21;4.43;;;3.60;;
11709;SDS011;5911;51.036;6.972;2023-07-24T03:31:49;4.53;;;3.85;;
11709;SDS011;5911;51.036;6.972;2023-07-24T03:34:17;4.70;;;3.60;;
11709;SDS011;5911;51.036;6.972;2023-07-24T03:36:45;4.38;;;3.80;;
11709;SDS011;5911;51.036;6.972;2023-07-24T03:39:13;5.47;;;4.07;;
11709;SDS011;5911;51.036;6.972;2023-07-24T03:41:41;5.75;;;4.18;;
11709;SDS011;5911;51.036;6.972;2023-07-24T03:44:09;4.47;;;3.83;;
11709;SDS011;5911;51.036;6.972;2023-07-24T03:46:39;5.90;;;4.03;;
11709;SDS011;5911;51.036;6.972;2023-07-24T03:49:07;5.10;;;4.10;;
11709;SDS011;5911;51.036;6.972;2023-07-24T03:51:35;5.18;;;3.58;;
11709;SDS011;5911;51.036;6.972;2023-07-24T03:54:03;5.63;;;3.88;;
11709;SDS011;5911;51.036;6.972;2023-07-24T03:56:30;5.85;;;4.18;;
11709;SDS011;5911;51.036;6.972;2023-07-24T03:58:58;4.28;;;3.95;;
11709;SDS011;5911;51.036;6.972;2023-07-24T04:01:26;4.28;;;3.80;;
11709;SDS011;5911;51.036;6.972;2023-07-24T04:03:55;3.85;;;3.50;;
11709;SDS011;5911;51.036;6.972;2023-07-24T04:06:24;6.85;;;4.18;;
11709;SDS011;5911;51.036;6.972;2023-07-24T04:08:52;4.90;;;3.72;;
11709;SDS011;5911;51.036;6.972;2023-07-24T04:11:19;4.70;;;4.15;;
11709;SDS011;5911;51.036;6.972;2023-07-24T04:13:47;5.63;;;3.95;;
11709;SDS011;5911;51.036;6.972;2023-07-24T04:16:15;7.32;;;4.03;;
11709;SDS011;5911;51.036;6.972;2023-07-24T04:18:43;5.03;;;4.03;;
11709;SDS011;5911;51.036;6.972;2023-07-24T04:21:12;4.95;;;3.72;;
11709;SDS011;5911;51.036;6.972;2023-07-24T04:23:39;4.47;;;4.00;;
11709;SDS011;5911;51.036;6.972;2023-07-24T04:26:07;5.53;;;3.67;;
11709;SDS011;5911;51.036;6.972;2023-07-24T04:28:35;5.13;;;3.55;;
11709;SDS011;5911;51.036;6.972;2023-07-24T04:31:03;4.13;;;3.55;;
11709;SDS011;5911;51.036;6.972;2023-07-24T04:33:31;6.70;;;4.13;;
11709;SDS011;5911;51.036;6.972;2023-07-24T04:35:58;5.40;;;4.35;;
11709;SDS011;5911;51.036;6.972;2023-07-24T04:38:28;4.88;;;3.53;;
11709;SDS011;5911;51.036;6.972;2023-07-24T04:40:55;5.38;;;3.80;;
11709;SDS011;5911;51.036;6.972;2023-07-24T04:43:23;6.78;;;3.92;;
11709;SDS011;5911;51.036;6.972;2023-07-24T04:45:51;4.32;;;3.55;;
11709;SDS011;5911;51.036;6.972;2023-07-24T04:48:19;4.90;;;3.70;;
11709;SDS011;5911;51.036;6.972;2023-07-24T04:50:52;4.10;;;3.70;;
11709;SDS011;5911;51.036;6.972;2023-07-24T04:53:21;5.40;;;3.78;;
11709;SDS011;5911;51.036;6.972;2023-07-24T04:55:50;4.25;;;3.80;;
11709;SDS011;5911;51.036;6.972;2023-07-24T04:58:18;5.97;;;3.85;;
11709;SDS011;5911;51.036;6.972;2023-07-24T05:00:45;5.25;;;4.20;;
11709;SDS011;5911;51.036;6.972;2023-07-24T05:03:13;4.80;;;4.00;;
11709;SDS011;5911;51.036;6.972;2023-07-24T05:05:43;4.07;;;3.40;;
11709;SDS011;5911;51.036;6.972;2023-07-24T05:08:13;4.95;;;3.95;;
11709;SDS011;5911;51.036;6.972;2023-07-24T05:10:41;5.07;;;3.92;;
11709;SDS011;5911;51.036;6.972;2023-07-24T05:13:10;4.40;;;3.80;;
11709;SDS011;5911;51.036;6.972;2023-07-24T05:15:39;4.75;;;3.80;;
11709;SDS011;5911;51.036;6.972;2023-07-24T05:18:07;5.15;;;3.83;;
11709;SDS011;5911;51.036;6.972;2023-07-24T05:20:34;5.40;;;4.35;;
11709;SDS011;5911;51.036;6.972;2023-07-24T05:23:02;5.97;;;4.10;;
11709;SDS011;5911;51.036;6.972;2023-07-24T05:25:30;4.72;;;3.72;;
11709;SDS011;5911;51.036;6.972;2023-07-24T05:27:58;8.32;;;4.40;;
11709;SDS011;5911;51.036;6.972;2023-07-24T05:30:27;6.35;;;4.25;;
11709;SDS011;5911;51.036;6.972;2023-07-24T05:32:55;7.55;;;4.38;;
11709;SDS011;5911;51.036;6.972;2023-07-24T05:35:23;5.45;;;4.40;;
11709;SDS011;5911;51.036;6.972;2023-07-24T05:37:50;5.63;;;4.20;;
11709;SDS011;5911;51.036;6.972;2023-07-24T05:40:18;6.35;;;4.13;;
11709;SDS011;5911;51.036;6.972;2023-07-24T05:42:46;4.88;;;4.10;;
11709;SDS011;5911;51.036;6.972;2023-07-24T05:45:14;7.15;;;4.40;;
11709;SDS011;5911;51.036;6.972;2023-07-24T05:47:43;5.55;;;4.45;;
11709;SDS011;5911;51.036;6.972;2023-07-24T05:50:11;5.40;;;4.50;;
11709;SDS011;5911;51.036;6.972;2023-07-24T05:52:40;5.90;;;4.47;;
11709;SDS011;5911;51.036;6.972;2023-07-24T05:55:08;7.22;;;4.53;;
11709;SDS011;5911;51.036;6.972;2023-07-24T05:57:36;5.88;;;4.47;;
11709;SDS011;5911;51.036;6.972;2023-07-24T06:00:04;6.72;;;4.70;;
11709;SDS011;5911;51.036;6.972;2023-07-24T06:02:41;5.57;;;4.55;;
11709;SDS011;5911;51.036;6.972;2023-07-24T06:05:11;10.13;;;4.50;;
11709;SDS011;5911;51.036;6.972;2023-07-24T06:07:39;7.10;;;4.88;;
11709;SDS011;5911;51.036;6.972;2023-07-24T06:10:07;5.13;;;4.35;;
11709;SDS011;5911;51.036;6.972;2023-07-24T06:12:35;6.10;;;4.32;;
11709;SDS011;5911;51.036;6.972;2023-07-24T06:15:03;4.78;;;4.25;;
11709;SDS011;5911;51.036;6.972;2023-07-24T06:17:32;5.97;;;4.72;;
11709;SDS011;5911;51.036;6.972;2023-07-24T06:20:00;5.47;;;3.92;;
11709;SDS011;5911;51.036;6.972;2023-07-24T06:22:30;4.70;;;4.30;;
11709;SDS011;5911;51.036;6.972;2023-07-24T06:24:57;5.68;;;4.05;;
11709;SDS011;5911;51.036;6.972;2023-07-24T06:27:25;4.82;;;3.85;;
11709;SDS011;5911;51.036;6.972;2023-07-24T06:29:53;5.22;;;3.80;;
11709;SDS011;5911;51.036;6.972;2023-07-24T06:32:30;6.38;;;4.18;;
11709;SDS011;5911;51.036;6.972;2023-07-24T06:34:58;5.20;;;3.90;;
11709;SDS011;5911;51.036;6.972;2023-07-24T06:37:26;6.82;;;4.00;;
11709;SDS011;5911;51.036;6.972;2023-07-24T06:39:55;7.55;;;3.80;;
11709;SDS011;5911;51.036;6.972;2023-07-24T06:42:22;6.10;;;4.50;;
11709;SDS011;5911;51.036;6.972;2023-07-24T06:44:50;5.55;;;3.80;;
11709;SDS011;5911;51.036;6.972;2023-07-24T06:47:18;5.82;;;3.80;;
11709;SDS011;5911;51.036;6.972;2023-07-24T06:49:46;5.53;;;3.60;;
11709;SDS011;5911;51.036;6.972;2023-07-24T06:52:14;5.18;;;3.65;;
11709;SDS011;5911;51.036;6.972;2023-07-24T06:54:42;5.45;;;3.20;;
11709;SDS011;5911;51.036;6.972;2023-07-24T06:57:11;6.28;;;3.42;;
11709;SDS011;5911;51.036;6.972;2023-07-24T06:59:39;5.07;;;3.40;;
11709;SDS011;5911;51.036;6.972;2023-07-24T07:02:06;6.18;;;3.53;;
11709;SDS011;5911;51.036;6.972;2023-07-24T07:04:34;5.15;;;3.35;;
11709;SDS011;5911;51.036;6.972;2023-07-24T07:07:02;3.40;;;3.10;;
11709;SDS011;5911;51.036;6.972;2023-07-24T07:09:30;4.25;;;3.28;;
11709;SDS011;5911;51.036;6.972;2023-07-24T07:11:58;3.45;;;3.13;;
11709;SDS011;5911;51.036;6.972;2023-07-24T07:14:27;4.13;;;3.60;;
11709;SDS011;5911;51.036;6.972;2023-07-24T07:16:55;5.25;;;3.60;;
11709;SDS011;5911;51.036;6.972;2023-07-24T07:19:23;3.38;;;3.08;;
11709;SDS011;5911;51.036;6.972;2023-07-24T07:21:50;3.08;;;2.80;;
11709;SDS011;5911;51.036;6.972;2023-07-24T07:24:18;2.88;;;2.58;;
11709;SDS011;5911;51.036;6.972;2023-07-24T07:26:46;4.10;;;2.90;;
11709;SDS011;5911;51.036;6.972;2023-07-24T07:29:14;3.75;;;3.10;;
11709;SDS011;5911;51.036;6.972;2023-07-24T07:31:43;3.25;;;2.83;;
11709;SDS011;5911;51.036;6.972;2023-07-24T07:34:11;4.30;;;3.25;;
11709;SDS011;5911;51.036;6.972;2023-07-24T07:36:38;3.20;;;2.90;;
11709;SDS011;5911;51.036;6.972;2023-07-24T07:39:06;3.30;;;2.65;;
11709;SDS011;5911;51.036;6.972;2023-07-24T07:41:35;3.50;;;2.72;;
11709;SDS011;5911;51.036;6.972;2023-07-24T07:44:03;3.67;;;2.75;;
11709;SDS011;5911;51.036;6.972;2023-07-24T07:46:31;3.10;;;2.80;;
11709;SDS011;5911;51.036;6.972;2023-07-24T07:49:00;3.67;;;2.75;;
11709;SDS011;5911;51.036;6.972;2023-07-24T07:51:28;3.25;;;2.70;;
11709;SDS011;5911;51.036;6.972;2023-07-24T07:53:56;3.58;;;3.28;;
11709;SDS011;5911;51.036;6.972;2023-07-24T07:56:24;3.30;;;2.90;;
11709;SDS011;5911;51.036;6.972;2023-07-24T07:58:51;4.03;;;3.40;;
11709;SDS011;5911;51.036;6.972;2023-07-24T08:01:20;4.65;;;2.70;;
11709;SDS011;5911;51.036;6.972;2023-07-24T08:03:48;4.57;;;3.45;;
11709;SDS011;5911;51.036;6.972;2023-07-24T08:06:17;4.07;;;2.97;;
11709;SDS011;5911;51.036;6.972;2023-07-24T08:08:45;3.65;;;3.33;;
11709;SDS011;5911;51.036;6.972;2023-07-24T08:11:12;5.53;;;2.90;;
11709;SDS011;5911;51.036;6.972;2023-07-24T08:13:40;3.20;;;2.90;;
11709;SDS011;5911;51.036;6.972;2023-07-24T08:16:12;3.92;;;3.53;;
11709;SDS011;5911;51.036;6.972;2023-07-24T08:18:45;4.07;;;3.03;;
11709;SDS011;5911;51.036;6.972;2023-07-24T08:21:13;4.93;;;3.70;;
11709;SDS011;5911;51.036;6.972;2023-07-24T08:23:43;3.90;;;3.50;;
11709;SDS011;5911;51.036;6.972;2023-07-24T08:26:10;4.45;;;3.28;;
11709;SDS011;5911;51.036;6.972;2023-07-24T08:28:38;4.10;;;3.70;;
11709;SDS011;5911;51.036;6.972;2023-07-24T08:31:08;3.45;;;3.13;;
11709;SDS011;5911;51.036;6.972;2023-07-24T08:33:37;4.32;;;3.00;;
11709;SDS011;5911;51.036;6.972;2023-07-24T08:36:05;3.83;;;3.42;;
11709;SDS011;5911;51.036;6.972;2023-07-24T08:38:35;4.10;;;3.28;;
11709;SDS011;5911;51.036;6.972;2023-07-24T08:41:05;3.60;;;3.30;;
11709;SDS011;5911;51.036;6.972;2023-07-24T08:43:34;4.60;;;3.63;;
11709;SDS011;5911;51.036;6.972;2023-07-24T08:46:03;5.45;;;3.35;;
11709;SDS011;5911;51.036;6.972;2023-07-24T08:48:32;4.10;;;3.63;;
11709;SDS011;5911;51.036;6.972;2023-07-24T08:51:03;3.75;;;3.20;;
11709;SDS011;5911;51.036;6.972;2023-07-24T08:53:32;3.72;;;2.88;;
11709;SDS011;5911;51.036;6.972;2023-07-24T08:56:02;4.38;;;2.92;;
11709;SDS011;5911;51.036;6.972;2023-07-24T08:58:33;3.40;;;3.10;;
11709;SDS011;5911;51.036;6.972;2023-07-24T09:01:02;5.15;;;3.35;;
11709;SDS011;5911;51.036;6.972;2023-07-24T09:03:31;3.60;;;2.90;;
11709;SDS011;5911;51.036;6.972;2023-07-24T09:06:00;4.03;;;3.35;;
11709;SDS011;5911;51.036;6.972;2023-07-24T09:08:30;3.65;;;3.20;;
11709;SDS011;5911;51.036;6.972;2023-07-24T09:10:58;3.35;;;2.83;;
11709;SDS011;5911;51.036;6.972;2023-07-24T09:13:26;3.03;;;2.58;;
11709;SDS011;5911;51.036;6.972;2023-07-24T09:15:55;3.33;;;3.03;;
11709;SDS011;5911;51.036;6.972;2023-07-24T09:18:23;4.13;;;3.25;;
11709;SDS011;5911;51.036;6.972;2023-07-24T09:20:51;3.38;;;3.00;;
11709;SDS011;5911;51.036;6.972;2023-07-24T09:23:25;3.80;;;2.95;;
11709;SDS011;5911;51.036;6.972;2023-07-24T09:25:54;3.20;;;2.70;;
11709;SDS011;5911;51.036;6.972;2023-07-24T09:28:22;3.47;;;3.08;;
11709;SDS011;5911;51.036;6.972;2023-07-24T09:30:53;4.35;;;2.67;;
11709;SDS011;5911;51.036;6.972;2023-07-24T09:33:33;3.03;;;2.72;;
11709;SDS011;5911;51.036;6.972;2023-07-24T09:36:02;3.33;;;2.80;;
11709;SDS011;5911;51.036;6.972;2023-07-24T09:38:30;4.80;;;3.13;;
11709;SDS011;5911;51.036;6.972;2023-07-24T09:41:00;3.58;;;2.90;;
11709;SDS011;5911;51.036;6.972;2023-07-24T09:43:29;3.55;;;2.83;;
11709;SDS011;5911;51.036;6.972;2023-07-24T09:46:06;4.53;;;3.00;;
11709;SDS011;5911;51.036;6.972;2023-07-24T09:48:37;3.30;;;3.00;;
11709;SDS011;5911;51.036;6.972;2023-07-24T09:51:25;2.97;;;2.55;;
11709;SDS011;5911;51.036;6.972;2023-07-24T09:53:58;2.97;;;2.70;;
11709;SDS011;5911;51.036;6.972;2023-07-24T09:56:28;2.85;;;2.63;;
11709;SDS011;5911;51.036;6.972;2023-07-24T09:59:17;3.30;;;2.75;;
11709;SDS011;5911;51.036;6.972;2023-07-24T10:01:46;2.35;;;2.15;;
11709;SDS011;5911;51.036;6.972;2023-07-24T10:04:16;2.55;;;2.03;;
11709;SDS011;5911;51.036;6.972;2023-07-24T10:06:44;2.67;;;2.47;;
11709;SDS011;5911;51.036;6.972;2023-07-24T10:09:12;3.88;;;2.53;;
11709;SDS011;5911;51.036;6.972;2023-07-24T10:11:40;2.33;;;2.10;;
11709;SDS011;5911;51.036;6.972;2023-07-24T10:14:08;3.13;;;2.30;;
11709;SDS011;5911;51.036;6.972;2023-07-24T10:16:36;2.95;;;1.98;;
11709;SDS011;5911;51.036;6.972;2023-07-24T10:19:12;5.32;;;2.63;;
11709;SDS011;5911;51.036;6.972;2023-07-24T10:21:46;2.83;;;2.53;;
11709;SDS011;5911;51.036;6.972;2023-07-24T10:24:14;2.65;;;2.20;;
11709;SDS011;5911;51.036;6.972;2023-07-24T10:27:02;2.88;;;2.30;;
11709;SDS011;5911;51.036;6.972;2023-07-24T10:29:34;5.35;;;2.78;;
11709;SDS011;5911;51.036;6.972;2023-07-24T10:32:03;2.80;;;2.40;;
11709;SDS011;5911;51.036;6.972;2023-07-24T10:34:38;2.70;;;2.50;;
11709;SDS011;5911;51.036;6.972;2023-07-24T10:37:08;4.32;;;2.80;;
11709;SDS011;5911;51.036;6.972;2023-07-24T10:39:39;3.42;;;2.58;;
11709;SDS011;5911;51.036;6.972;2023-07-24T10:42:08;2.45;;;2.13;;
11709;SDS011;5911;51.036;6.972;2023-07-24T10:44:36;3.13;;;2.58;;
11709;SDS011;5911;51.036;6.972;2023-07-24T10:47:04;2.95;;;2.50;;
11709;SDS011;5911;51.036;6.972;2023-07-24T10:49:33;4.47;;;3.20;;
11709;SDS011;5911;51.036;6.972;2023-07-24T10:52:01;3.83;;;2.88;;
11709;SDS011;5911;51.036;6.972;2023-07-24T10:54:31;2.60;;;2.40;;
11709;SDS011;5911;51.036;6.972;2023-07-24T10:56:59;4.40;;;2.88;;
11709;SDS011;5911;51.036;6.972;2023-07-24T10:59:37;3.25;;;2.95;;
11709;SDS011;5911;51.036;6.972;2023-07-24T11:02:06;3.30;;;2.78;;
11709;SDS011;5911;51.036;6.972;2023-07-24T11:04:35;2.90;;;2.60;;
11709;SDS011;5911;51.036;6.972;2023-07-24T11:07:03;3.08;;;2.63;;
11709;SDS011;5911;51.036;6.972;2023-07-24T11:09:36;4.60;;;2.97;;
11709;SDS011;5911;51.036;6.972;2023-07-24T11:12:10;3.55;;;2.67;;
11709;SDS011;5911;51.036;6.972;2023-07-24T11:14:46;3.33;;;3.03;;
11709;SDS011;5911;51.036;6.972;2023-07-24T11:17:15;4.18;;;3.15;;
11709;SDS011;5911;51.036;6.972;2023-07-24T11:19:42;3.22;;;2.92;;
11709;SDS011;5911;51.036;6.972;2023-07-24T11:22:10;4.13;;;2.88;;
11709;SDS011;5911;51.036;6.972;2023-07-24T11:24:46;5.10;;;3.33;;
11709;SDS011;5911;51.036;6.972;2023-07-24T11:27:14;4.25;;;3.10;;
11709;SDS011;5911;51.036;6.972;2023-07-24T11:29:47;4.70;;;3.90;;
11709;SDS011;5911;51.036;6.972;2023-07-24T11:32:17;4.35;;;3.45;;
11709;SDS011;5911;51.036;6.972;2023-07-24T11:34:46;4.20;;;3.20;;
11709;SDS011;5911;51.036;6.972;2023-07-24T11:37:14;3.53;;;3.03;;
11709;SDS011;5911;51.036;6.972;2023-07-24T11:39:42;3.67;;;3.35;;
11709;SDS011;5911;51.036;6.972;2023-07-24T11:42:12;4.03;;;3.30;;
11709;SDS011;5911;51.036;6.972;2023-07-24T11:44:39;6.97;;;3.80;;
11709;SDS011;5911;51.036;6.972;2023-07-24T11:47:07;9.50;;;3.63;;
11709;SDS011;5911;51.036;6.972;2023-07-24T11:49:35;24.42;;;6.25;;
11709;SDS011;5911;51.036;6.972;2023-07-24T11:52:03;66.90;;;8.10;;
11709;SDS011;5911;51.036;6.972;2023-07-24T11:54:33;16.25;;;5.10;;
11709;SDS011;5911;51.036;6.972;2023-07-24T11:57:01;12.68;;;4.45;;
11709;SDS011;5911;51.036;6.972;2023-07-24T11:59:36;10.05;;;4.88;;
11709;SDS011;5911;51.036;6.972;2023-07-24T12:02:05;9.07;;;3.65;;
11709;SDS011;5911;51.036;6.972;2023-07-24T12:04:37;6.30;;;3.28;;
11709;SDS011;5911;51.036;6.972;2023-07-24T12:07:07;6.80;;;3.35;;
11709;SDS011;5911;51.036;6.972;2023-07-24T12:09:35;6.70;;;3.38;;
11709;SDS011;5911;51.036;6.972;2023-07-24T12:12:04;3.15;;;2.10;;
11709;SDS011;5911;51.036;6.972;2023-07-24T12:14:33;4.10;;;2.38;;
11709;SDS011;5911;51.036;6.972;2023-07-24T12:17:01;3.13;;;2.20;;
11709;SDS011;5911;51.036;6.972;2023-07-24T12:19:30;2.30;;;2.10;;
11709;SDS011;5911;51.036;6.972;2023-07-24T12:21:57;2.08;;;1.90;;
11709;SDS011;5911;51.036;6.972;2023-07-24T12:24:25;2.25;;;1.95;;
11709;SDS011;5911;51.036;6.972;2023-07-24T12:26:53;10.10;;;2.13;;
11709;SDS011;5911;51.036;6.972;2023-07-24T12:29:21;2.95;;;2.17;;
11709;SDS011;5911;51.036;6.972;2023-07-24T12:31:50;3.53;;;2.50;;
11709;SDS011;5911;51.036;6.972;2023-07-24T12:34:18;2.92;;;2.50;;
11709;SDS011;5911;51.036;6.972;2023-07-24T12:36:46;3.88;;;2.50;;
11709;SDS011;5911;51.036;6.972;2023-07-24T12:39:14;3.80;;;2.40;;
11709;SDS011;5911;51.036;6.972;2023-07-24T12:41:42;2.50;;;2.25;;
11709;SDS011;5911;51.036;6.972;2023-07-24T12:44:09;2.22;;;2.03;;
11709;SDS011;5911;51.036;6.972;2023-07-24T12:46:37;5.13;;;2.47;;
11709;SDS011;5911;51.036;6.972;2023-07-24T12:49:06;2.60;;;2.40;;
11709;SDS011;5911;51.036;6.972;2023-07-24T12:51:34;2.50;;;2.30;;
11709;SDS011;5911;51.036;6.972;2023-07-24T12:54:02;3.75;;;2.67;;
11709;SDS011;5911;51.036;6.972;2023-07-24T12:56:40;3.33;;;2.03;;
11709;SDS011;5911;51.036;6.972;2023-07-24T12:59:08;2.15;;;1.90;;
11709;SDS011;5911;51.036;6.972;2023-07-24T13:01:36;2.13;;;1.92;;
11709;SDS011;5911;51.036;6.972;2023-07-24T13:04:03;2.00;;;1.80;;
11709;SDS011;5911;51.036;6.972;2023-07-24T13:06:33;2.45;;;1.85;;
11709;SDS011;5911;51.036;6.972;2023-07-24T13:09:01;2.45;;;1.92;;
11709;SDS011;5911;51.036;6.972;2023-07-24T13:11:29;6.07;;;2.10;;
11709;SDS011;5911;51.036;6.972;2023-07-24T13:13:57;2.95;;;2.10;;
11709;SDS011;5911;51.036;6.972;2023-07-24T13:16:25;3.17;;;2.20;;
11709;SDS011;5911;51.036;6.972;2023-07-24T13:18:55;2.78;;;2.15;;
11709;SDS011;5911;51.036;6.972;2023-07-24T13:21:23;3.55;;;2.47;;
11709;SDS011;5911;51.036;6.972;2023-07-24T13:23:52;2.13;;;1.92;;
11709;SDS011;5911;51.036;6.972;2023-07-24T13:26:20;3.45;;;2.40;;
11709;SDS011;5911;51.036;6.972;2023-07-24T13:28:47;2.40;;;2.20;;
11709;SDS011;5911;51.036;6.972;2023-07-24T13:31:16;2.33;;;2.05;;
11709;SDS011;5911;51.036;6.972;2023-07-24T13:33:45;2.30;;;2.10;;
11709;SDS011;5911;51.036;6.972;2023-07-24T13:36:13;2.22;;;2.03;;
11709;SDS011;5911;51.036;6.972;2023-07-24T13:38:41;1.67;;;1.55;;
11709;SDS011;5911;51.036;6.972;2023-07-24T13:41:10;3.05;;;1.70;;
11709;SDS011;5911;51.036;6.972;2023-07-24T13:43:38;2.33;;;1.60;;
11709;SDS011;5911;51.036;6.972;2023-07-24T13:46:06;2.00;;;1.80;;
11709;SDS011;5911;51.036;6.972;2023-07-24T13:48:34;1.65;;;1.55;;
11709;SDS011;5911;51.036;6.972;2023-07-24T13:51:02;1.50;;;1.40;;
11709;SDS011;5911;51.036;6.972;2023-07-24T13:53:33;4.47;;;2.10;;
11709;SDS011;5911;51.036;6.972;2023-07-24T13:56:01;2.15;;;1.67;;
11709;SDS011;5911;51.036;6.972;2023-07-24T13:58:30;3.75;;;1.98;;
11709;SDS011;5911;51.036;6.972;2023-07-24T14:00:58;3.78;;;1.77;;
11709;SDS011;5911;51.036;6.972;2023-07-24T14:03:26;4.20;;;1.90;;
11709;SDS011;5911;51.036;6.972;2023-07-24T14:05:56;2.75;;;1.85;;
11709;SDS011;5911;51.036;6.972;2023-07-24T14:08:24;4.20;;;2.25;;
11709;SDS011;5911;51.036;6.972;2023-07-24T14:10:52;2.25;;;2.05;;
11709;SDS011;5911;51.036;6.972;2023-07-24T14:13:20;3.17;;;1.98;;
11709;SDS011;5911;51.036;6.972;2023-07-24T14:15:49;2.85;;;1.98;;
11709;SDS011;5911;51.036;6.972;2023-07-24T14:18:16;2.70;;;1.88;;
11709;SDS011;5911;51.036;6.972;2023-07-24T14:20:45;3.28;;;1.90;;
11709;SDS011;5911;51.036;6.972;2023-07-24T14:23:13;2.95;;;2.13;;
11709;SDS011;5911;51.036;6.972;2023-07-24T14:25:41;2.30;;;2.08;;
11709;SDS011;5911;51.036;6.972;2023-07-24T14:28:09;2.80;;;2.58;;
11709;SDS011;5911;51.036;6.972;2023-07-24T14:30:36;2.63;;;1.70;;
11709;SDS011;5911;51.036;6.972;2023-07-24T14:33:05;2.60;;;1.83;;
11709;SDS011;5911;51.036;6.972;2023-07-24T14:35:33;1.95;;;1.85;;
11709;SDS011;5911;51.036;6.972;2023-07-24T14:38:01;2.33;;;1.70;;
11709;SDS011;5911;51.036;6.972;2023-07-24T14:40:29;1.85;;;1.73;;
11709;SDS011;5911;51.036;6.972;2023-07-24T14:42:57;2.75;;;1.67;;
11709;SDS011;5911;51.036;6.972;2023-07-24T14:45:25;3.15;;;2.40;;
11709;SDS011;5911;51.036;6.972;2023-07-24T14:47:52;3.15;;;1.77;;
11709;SDS011;5911;51.036;6.972;2023-07-24T14:50:22;2.13;;;1.65;;
11709;SDS011;5911;51.036;6.972;2023-07-24T14:52:49;1.73;;;1.30;;
11709;SDS011;5911;51.036;6.972;2023-07-24T14:55:17;1.38;;;1.27;;
11709;SDS011;5911;51.036;6.972;2023-07-24T14:57:45;1.60;;;1.48;;
11709;SDS011;5911;51.036;6.972;2023-07-24T15:00:13;1.63;;;1.52;;
11709;SDS011;5911;51.036;6.972;2023-07-24T15:02:42;1.80;;;1.70;;
11709;SDS011;5911;51.036;6.972;2023-07-24T15:05:10;2.85;;;1.70;;
11709;SDS011;5911;51.036;6.972;2023-07-24T15:07:39;2.22;;;2.00;;
11709;SDS011;5911;51.036;6.972;2023-07-24T15:10:07;1.90;;;1.70;;